Time;durP1;ratioP1;P1;durP2;ratioP2;P2;SDS_P1;SDS_P2;PMS_P1;PMS_P2;Temp;Humidity;BMP_temperature;BMP_pressure;BME280_temperature;BME280_humidity;BME280_pressure;Samples;Min_cycle;Max_cycle;Signal;HPM_P1;HPM_P2
2022/10/25 00:01:08;;;;;;;;;;;;;;;21.01;53.72;100874.13;5153765;27;21458;-35
2022/10/25 00:03:33;;;;;;;;;;;;;;;21.01;53.85;100878.84;5153527;27;19923;-35
2022/10/25 00:05:59;;;;;;;;;;;;;;;21.02;53.74;100877.72;5155929;27;19927;-35
2022/10/25 00:08:25;;;;;;;;;;;;;;;21.01;53.84;100881.59;5154248;27;20326;-35
2022/10/25 00:10:50;;;;;;;;;;;;;;;21.00;53.68;100879.97;5154572;27;20993;-35
2022/10/25 00:13:16;;;;;;;;;;;;;;;21.01;53.72;100878.84;5151580;27;19923;-35
2022/10/25 00:15:42;;;;;;;;;;;;;;;21.01;53.79;100881.59;5140844;27;19931;-35
2022/10/25 00:18:07;;;;;;;;;;;;;;;21.00;53.71;100880.78;5143156;27;19927;-35
2022/10/25 00:20:34;;;;;;;;;;;;;;;21.00;53.70;100885.50;5138151;27;19976;-35
2022/10/25 00:23:00;;;;;;;;;;;;;;;21.01;53.90;100889.91;5142669;27;19970;-35
2022/10/25 00:25:25;;;;;;;;;;;;;;;21.00;53.86;100889.09;5143678;27;19927;-35
2022/10/25 00:27:51;;;;;;;;;;;;;;;21.00;53.81;100894.63;5140760;27;20291;-35
2022/10/25 00:30:16;;;;;;;;;;;;;;;21.00;53.82;100891.03;5140113;27;19973;-35
2022/10/25 00:32:42;;;;;;;;;;;;;;;21.00;53.77;100894.63;5139720;27;19960;-36
2022/10/25 00:35:08;;;;;;;;;;;;;;;21.00;53.75;100891.03;5141751;27;19931;-35
2022/10/25 00:37:34;;;;;;;;;;;;;;;21.00;53.71;100888.28;5140730;27;19924;-38
2022/10/25 00:39:59;;;;;;;;;;;;;;;21.00;53.73;100894.63;5137002;27;19963;-35
2022/10/25 00:42:26;;;;;;;;;;;;;;;21.00;53.60;100891.03;5136695;27;20341;-35
2022/10/25 00:44:52;;;;;;;;;;;;;;;20.99;53.78;100887.44;5136090;27;19976;-35
2022/10/25 00:49:56;;;;;;;;;;;;;;;21.00;53.84;100896.56;5172951;27;19926;-35
2022/10/25 00:52:21;;;;;;;;;;;;;;;20.99;53.78;100887.44;5159098;27;19959;-35
2022/10/25 00:54:48;;;;;;;;;;;;;;;20.99;53.76;100890.22;5156587;27;19984;-35
2022/10/25 00:57:15;;;;;;;;;;;;;;;20.99;53.79;100901.28;5153209;27;20327;-35
2022/10/25 00:59:40;;;;;;;;;;;;;;;20.99;53.73;100908.78;5157614;27;20030;-35
2022/10/25 01:02:06;;;;;;;;;;;;;;;21.00;53.77;100904.88;5156216;27;20367;-35
2022/10/25 01:04:32;;;;;;;;;;;;;;;20.99;53.95;100912.38;5153679;27;19924;-35
2022/10/25 01:06:57;;;;;;;;;;;;;;;20.99;53.70;100909.59;5156494;27;19927;-35
2022/10/25 01:09:24;;;;;;;;;;;;;;;20.99;53.91;100912.38;5154415;27;19923;-35
2022/10/25 01:11:49;;;;;;;;;;;;;;;20.99;53.83;100911.53;5157725;27;20017;-35
2022/10/25 01:14:15;;;;;;;;;;;;;;;20.99;53.77;100920.66;5156647;27;19931;-35
2022/10/25 01:16:59;;;;;;;;;;;;;;;20.98;53.77;100921.78;5146069;27;19924;-35
2022/10/25 01:19:29;;;;;;;;;;;;;;;20.99;53.90;100919.84;5150340;27;20026;-35
2022/10/25 01:21:57;;;;;;;;;;;;;;;20.99;53.86;100919.84;5148701;27;20026;-35
2022/10/25 01:24:43;;;;;;;;;;;;;;;20.99;53.94;100919.84;5157012;27;20019;-35
2022/10/25 01:30:03;;;;;;;;;;;;;;;20.98;53.89;100918.19;5173170;27;19933;-35
2022/10/25 01:32:32;;;;;;;;;;;;;;;20.99;53.77;100917.09;5172797;27;20017;-35
2022/10/25 01:35:02;;;;;;;;;;;;;;;20.99;53.85;100919.84;5170346;27;19966;-36
2022/10/25 01:37:29;;;;;;;;;;;;;;;20.97;53.73;100920.13;5171878;27;20036;-35
2022/10/25 01:39:57;;;;;;;;;;;;;;;20.98;53.74;100929.25;5157873;27;20013;-36
2022/10/25 01:42:29;;;;;;;;;;;;;;;20.98;53.73;100930.09;5175028;27;20040;-35
2022/10/25 01:45:01;;;;;;;;;;;;;;;20.98;53.72;100923.72;5169144;27;20363;-35
2022/10/25 01:47:28;;;;;;;;;;;;;;;20.98;53.83;100930.09;5171910;27;19962;-35
2022/10/25 01:49:57;;;;;;;;;;;;;;;20.98;53.90;100932.88;5171589;27;20051;-35
2022/10/25 01:52:22;;;;;;;;;;;;;;;20.98;53.86;100934.78;5172995;27;20022;-35
2022/10/25 01:54:48;;;;;;;;;;;;;;;20.98;53.85;100937.56;5150009;27;19923;-34
2022/10/25 01:57:25;;;;;;;;;;;;;;;20.99;53.76;100936.47;5166616;27;19930;-35
2022/10/25 02:00:07;;;;;;;;;;;;;;;20.97;53.95;100939.50;5172522;27;20038;-35
2022/10/25 02:02:37;;;;;;;;;;;;;;;20.97;53.93;100933.97;5151039;27;19974;-35
2022/10/25 02:05:06;;;;;;;;;;;;;;;20.97;53.81;100935.91;5154365;27;19962;-35
2022/10/25 02:07:40;;;;;;;;;;;;;;;20.98;53.91;100934.78;5171287;27;19958;-35
2022/10/25 02:10:11;;;;;;;;;;;;;;;20.98;53.75;100932.03;5172797;27;20007;-35
2022/10/25 02:12:56;;;;;;;;;;;;;;;20.96;53.73;100929.56;5152977;27;20643;-35
2022/10/25 02:15:24;;;;;;;;;;;;;;;20.97;53.75;100927.59;5148132;27;19970;-34
2022/10/25 02:17:52;;;;;;;;;;;;;;;20.96;53.96;100935.09;5153334;27;19978;-35
2022/10/25 02:20:18;;;;;;;;;;;;;;;20.97;53.68;100930.38;5155934;27;20009;-35
2022/10/25 02:22:43;;;;;;;;;;;;;;;20.97;53.75;100930.38;5149916;27;19931;-35
2022/10/25 02:25:09;;;;;;;;;;;;;;;20.97;53.79;100931.19;5156809;27;20393;-35
2022/10/25 02:27:35;;;;;;;;;;;;;;;20.97;53.87;100935.91;5154636;27;19923;-35
2022/10/25 02:30:01;;;;;;;;;;;;;;;20.97;53.96;100936.72;5156080;27;19931;-35
2022/10/25 02:32:26;;;;;;;;;;;;;;;20.97;53.98;100931.19;5154078;27;19923;-35
2022/10/25 02:34:52;;;;;;;;;;;;;;;20.96;53.73;100925.97;5156416;27;20283;-35
2022/10/25 02:37:18;;;;;;;;;;;;;;;20.96;53.87;100940.63;5154559;27;19923;-35
2022/10/25 02:39:43;;;;;;;;;;;;;;;20.96;53.90;100943.41;5147732;27;19928;-35
2022/10/25 02:42:09;;;;;;;;;;;;;;;20.97;53.72;100944.22;5139365;27;20348;-36
2022/10/25 02:44:35;;;;;;;;;;;;;;;20.97;53.95;100947.81;5136342;27;19931;-35
2022/10/25 02:47:00;;;;;;;;;;;;;;;20.96;54.01;100951.69;5138027;27;19927;-35
2022/10/25 02:49:26;;;;;;;;;;;;;;;20.97;53.87;100949.75;5139250;27;19923;-35
2022/10/25 02:51:51;;;;;;;;;;;;;;;20.96;53.77;100948.94;5139953;27;20352;-36
2022/10/25 02:54:22;;;;;;;;;;;;;;;20.96;53.96;100948.94;5138977;27;21314;-36
2022/10/25 02:56:51;;;;;;;;;;;;;;;20.97;53.73;100952.53;5138841;27;19946;-35
2022/10/25 02:59:17;;;;;;;;;;;;;;;20.96;53.70;100957.25;5144068;27;19977;-35
2022/10/25 03:01:42;;;;;;;;;;;;;;;20.96;53.81;100953.66;5123342;27;19927;-36
2022/10/25 03:04:08;;;;;;;;;;;;;;;20.96;53.85;100962.78;5120565;27;20357;-35
2022/10/25 03:06:33;;;;;;;;;;;;;;;20.96;53.95;100957.25;5141194;27;19923;-35
2022/10/25 03:08:59;;;;;;;;;;;;;;;20.95;53.71;100963.91;5141861;27;19954;-35
2022/10/25 03:11:24;;;;;;;;;;;;;;;20.96;53.78;100967.50;5137228;27;19968;-34
2022/10/25 03:13:50;;;;;;;;;;;;;;;20.95;53.73;100963.09;5139876;27;20543;-35
2022/10/25 03:16:15;;;;;;;;;;;;;;;20.96;53.81;100967.50;5134507;27;19930;-35
2022/10/25 03:18:41;;;;;;;;;;;;;;;20.95;53.87;100963.09;5141127;27;19930;-35
2022/10/25 03:21:07;;;;;;;;;;;;;;;20.95;53.86;100963.09;5141142;27;19932;-35
2022/10/25 03:23:32;;;;;;;;;;;;;;;20.96;53.83;100967.50;5141241;27;19927;-35
2022/10/25 03:25:58;;;;;;;;;;;;;;;20.95;53.86;100961.13;5130094;28;20286;-36
2022/10/25 03:28:26;;;;;;;;;;;;;;;20.95;53.72;100963.91;5139258;27;20015;-35
2022/10/25 03:30:52;;;;;;;;;;;;;;;20.95;53.99;100960.31;5123048;27;20575;-35
2022/10/25 03:33:17;;;;;;;;;;;;;;;20.95;53.81;100969.44;5120333;27;19923;-35
2022/10/25 03:35:43;;;;;;;;;;;;;;;20.95;53.83;100969.44;5139708;27;20303;-35
2022/10/25 03:38:08;;;;;;;;;;;;;;;20.95;53.68;100963.91;5138103;27;19923;-35
2022/10/25 03:40:34;;;;;;;;;;;;;;;20.95;53.88;100971.38;5139189;27;19932;-35
2022/10/25 03:42:59;;;;;;;;;;;;;;;20.95;53.75;100972.22;5139967;27;19931;-35
2022/10/25 03:45:25;;;;;;;;;;;;;;;20.95;53.80;100968.63;5139522;27;19938;-35
2022/10/25 03:47:50;;;;;;;;;;;;;;;20.95;53.88;100979.69;5142589;27;19931;-35
2022/10/25 03:50:16;;;;;;;;;;;;;;;20.95;53.89;100980.50;5142374;27;19935;-36
2022/10/25 03:52:42;;;;;;;;;;;;;;;20.95;54.03;100979.69;5138266;27;19927;-35
2022/10/25 03:55:08;;;;;;;;;;;;;;;20.95;53.83;100985.22;5136208;27;19976;-35
2022/10/25 03:57:33;;;;;;;;;;;;;;;20.95;53.89;100990.75;5120203;27;19924;-36
2022/10/25 03:59:59;;;;;;;;;;;;;;;20.95;53.85;100988.00;5136936;27;19961;-35
2022/10/25 04:02:24;;;;;;;;;;;;;;;20.95;53.74;100996.31;5136171;27;19923;-34
2022/10/25 04:04:50;;;;;;;;;;;;;;;20.95;53.96;101004.59;5140401;27;19935;-35
2022/10/25 04:07:16;;;;;;;;;;;;;;;20.94;53.89;101002.94;5116917;27;20464;-36
2022/10/25 04:09:41;;;;;;;;;;;;;;;20.94;53.89;100989.94;5141959;27;20291;-35
2022/10/25 04:12:07;;;;;;;;;;;;;;;20.95;53.65;100999.06;5139157;27;19924;-35
2022/10/25 04:14:32;;;;;;;;;;;;;;;20.93;54.06;100999.34;5135422;27;19986;-35
2022/10/25 04:16:58;;;;;;;;;;;;;;;20.93;53.83;100999.34;5138337;27;20290;-35
2022/10/25 04:19:23;;;;;;;;;;;;;;;20.95;53.89;101007.38;5137806;27;19927;-35
2022/10/25 04:21:49;;;;;;;;;;;;;;;20.94;53.88;101006.56;5139271;27;19927;-35
2022/10/25 04:24:15;;;;;;;;;;;;;;;20.95;53.83;101010.16;5143513;27;19931;-35
2022/10/25 04:26:40;;;;;;;;;;;;;;;20.94;53.86;101012.09;5138865;27;19927;-35
2022/10/25 04:29:06;;;;;;;;;;;;;;;20.94;54.03;101012.09;5139686;27;19931;-35
2022/10/25 04:31:31;;;;;;;;;;;;;;;20.95;54.00;101015.69;5137370;27;19930;-35
2022/10/25 04:33:57;;;;;;;;;;;;;;;20.94;53.96;101016.78;5117525;27;19923;-35
2022/10/25 04:36:23;;;;;;;;;;;;;;;20.95;53.92;101012.91;5119293;27;20382;-34
2022/10/25 04:38:49;;;;;;;;;;;;;;;20.94;53.93;101019.53;5139864;27;19927;-35
2022/10/25 04:41:14;;;;;;;;;;;;;;;20.94;53.81;101028.69;5137430;27;19946;-35
2022/10/25 04:43:40;;;;;;;;;;;;;;;20.94;53.87;101023.16;5135492;27;20353;-35
2022/10/25 04:46:05;;;;;;;;;;;;;;;20.93;53.79;101032.56;5114657;27;20301;-36
2022/10/25 04:48:31;;;;;;;;;;;;;;;20.93;54.04;101031.75;5130399;27;19949;-36
2022/10/25 04:50:58;;;;;;;;;;;;;;;20.94;53.92;101025.06;5115205;27;19923;-35
2022/10/25 04:53:24;;;;;;;;;;;;;;;20.93;53.88;101024.25;5119857;27;19978;-35
2022/10/25 04:55:57;;;;;;;;;;;;;;;20.94;54.01;101027.84;5142092;27;20340;-35
2022/10/25 04:58:23;;;;;;;;;;;;;;;20.93;53.81;101024.25;5139703;27;20363;-35
2022/10/25 05:01:00;;;;;;;;;;;;;;;20.90;55.29;101029.56;5135142;27;19938;-35
2022/10/25 05:03:26;;;;;;;;;;;;;;;20.93;54.52;101021.50;5116751;27;20002;-35
2022/10/25 05:05:51;;;;;;;;;;;;;;;20.95;54.34;101026.75;5134402;27;19984;-36
2022/10/25 05:08:17;;;;;;;;;;;;;;;20.94;54.25;101022.31;5139025;27;19935;-35
2022/10/25 05:10:42;;;;;;;;;;;;;;;20.94;54.12;101027.84;5137394;27;19934;-36
2022/10/25 05:13:08;;;;;;;;;;;;;;;20.96;54.30;101036.72;5132503;27;20371;-36
2022/10/25 05:15:34;;;;;;;;;;;;;;;20.96;54.11;101042.25;5133964;27;19999;-35
2022/10/25 05:17:59;;;;;;;;;;;;;;;20.96;54.08;101033.94;5136964;27;19924;-36
2022/10/25 05:20:25;;;;;;;;;;;;;;;20.96;54.15;101040.28;5116619;27;20405;-36
2022/10/25 05:22:51;;;;;;;;;;;;;;;20.95;54.09;101049.72;5141083;27;19942;-36
2022/10/25 05:25:16;;;;;;;;;;;;;;;20.95;54.20;101038.66;5119847;27;20336;-35
2022/10/25 05:27:42;;;;;;;;;;;;;;;20.96;54.33;101040.28;5139092;27;20137;-35
2022/10/25 05:30:08;;;;;;;;;;;;;;;20.96;54.26;101034.75;5136173;27;19924;-35
2022/10/25 05:32:33;;;;;;;;;;;;;;;20.98;54.18;101042.75;5129676;27;19924;-35
2022/10/25 05:34:59;;;;;;;;;;;;;;;20.97;54.10;101047.47;5137482;27;19930;-35
2022/10/25 05:37:24;;;;;;;;;;;;;;;20.98;54.09;101048.31;5129378;27;19935;-35
2022/10/25 05:39:50;;;;;;;;;;;;;;;20.99;54.13;101042.50;5137677;27;20281;-36
2022/10/25 05:42:15;;;;;;;;;;;;;;;21.00;54.33;101048.84;5137721;27;19923;-36
2022/10/25 05:44:41;;;;;;;;;;;;;;;21.01;54.06;101047.72;5134664;27;19931;-35
2022/10/25 05:47:07;;;;;;;;;;;;;;;21.00;54.10;101052.44;5136309;27;19923;-36
2022/10/25 05:49:38;;;;;;;;;;;;;;;21.00;54.14;101055.22;5135686;27;19935;-36
2022/10/25 05:52:04;;;;;;;;;;;;;;;21.01;54.31;101061.56;5133324;27;20018;-35
2022/10/25 05:54:30;;;;;;;;;;;;;;;21.03;54.24;101064.91;5131491;27;20398;-35
2022/10/25 05:56:55;;;;;;;;;;;;;;;21.02;54.31;101075.13;5134607;27;19935;-35
2022/10/25 05:59:21;;;;;;;;;;;;;;;21.04;54.21;101077.63;5121328;27;20070;-35
2022/10/25 06:01:46;;;;;;;;;;;;;;;21.04;54.20;101077.63;5122428;27;19927;-35
2022/10/25 06:04:12;;;;;;;;;;;;;;;21.04;54.07;101080.38;5123232;27;19929;-38
2022/10/25 06:06:38;;;;;;;;;;;;;;;20.97;55.75;101089.00;5123428;27;20131;-38
2022/10/25 06:09:04;;;;;;;;;;;;;;;21.04;55.32;101091.47;5128310;27;19927;-36
2022/10/25 06:11:30;;;;;;;;;;;;;;;21.06;54.72;101094.75;5132074;27;19924;-35
2022/10/25 06:13:55;;;;;;;;;;;;;;;21.07;54.55;101093.66;5125980;27;19934;-35
2022/10/25 06:16:21;;;;;;;;;;;;;;;21.06;54.61;101089.22;5131087;27;19942;-34
2022/10/25 06:18:47;;;;;;;;;;;;;;;21.06;54.67;101100.28;5130093;27;19934;-35
2022/10/25 06:21:14;;;;;;;;;;;;;;;21.06;54.54;101097.53;5137627;27;20333;-35
2022/10/25 06:23:40;;;;;;;;;;;;;;;21.05;54.63;101102.25;5133142;27;19971;-34
2022/10/25 06:26:07;;;;;;;;;;;;;;;21.07;54.55;101104.75;5129891;27;19932;-36
2022/10/25 06:28:32;;;;;;;;;;;;;;;21.08;54.71;101100.03;5112891;27;20026;-36
2022/10/25 06:31:00;;;;;;;;;;;;;;;21.07;54.51;101101.97;5113350;27;20367;-35
2022/10/25 06:33:25;;;;;;;;;;;;;;;21.07;54.54;101101.97;5136596;27;20009;-35
2022/10/25 06:35:53;;;;;;;;;;;;;;;21.09;54.45;101113.56;5131825;27;20339;-36
2022/10/25 06:38:19;;;;;;;;;;;;;;;21.09;54.33;101115.50;5136156;27;19942;-35
2022/10/25 06:40:44;;;;;;;;;;;;;;;21.08;54.26;101119.41;5134602;27;19923;-35
2022/10/25 06:43:10;;;;;;;;;;;;;;;21.08;54.29;101131.31;5136843;27;19923;-36
2022/10/25 06:45:36;;;;;;;;;;;;;;;21.08;54.41;101136.03;5128784;27;19931;-35
2022/10/25 06:48:01;;;;;;;;;;;;;;;21.08;54.10;101131.31;5134004;27;19931;-36
2022/10/25 06:50:27;;;;;;;;;;;;;;;21.09;54.27;101137.66;5130611;27;20317;-37
2022/10/25 06:52:52;;;;;;;;;;;;;;;21.09;54.27;101143.22;5137600;27;19927;-37
2022/10/25 06:55:18;;;;;;;;;;;;;;;21.09;54.42;101148.75;5134274;27;19931;-38
2022/10/25 06:57:43;;;;;;;;;;;;;;;21.09;54.34;101146.78;5132327;27;19934;-37
2022/10/25 07:00:09;;;;;;;;;;;;;;;21.10;54.51;101151.22;5128883;27;19923;-37
2022/10/25 07:02:35;;;;;;;;;;;;;;;21.10;54.36;101159.53;5117834;27;20073;-37
2022/10/25 07:05:00;;;;;;;;;;;;;;;21.12;54.14;101160.06;5107808;27;23295;-37
2022/10/25 07:07:26;;;;;;;;;;;;;;;21.14;53.99;101160.59;5105622;27;20015;-37
2022/10/25 07:09:52;;;;;;;;;;;;;;;21.17;53.96;101164.75;5115468;27;20464;-37
2022/10/25 07:12:17;;;;;;;;;;;;;;;21.16;53.78;101179.72;5120970;27;19942;-37
2022/10/25 07:14:43;;;;;;;;;;;;;;;21.13;53.80;101171.97;5124881;27;20701;-38
2022/10/25 07:17:08;;;;;;;;;;;;;;;21.14;53.57;101170.84;5121124;27;19938;-37
2022/10/25 07:19:34;;;;;;;;;;;;;;;21.13;53.69;101181.09;5123759;27;19931;-38
2022/10/25 07:22:00;;;;;;;;;;;;;;;21.13;53.61;101174.75;5123082;27;19930;-37
2022/10/25 07:24:25;;;;;;;;;;;;;;;21.12;53.63;101179.47;5123293;27;19924;-37
2022/10/25 07:26:51;;;;;;;;;;;;;;;21.13;53.65;101181.09;5125507;27;19960;-38
2022/10/25 07:29:16;;;;;;;;;;;;;;;21.12;53.55;101190.53;5128989;27;19934;-37
2022/10/25 07:31:43;;;;;;;;;;;;;;;21.14;53.56;101193.84;5127508;27;20574;-37
2022/10/25 07:34:09;;;;;;;;;;;;;;;21.15;53.35;101194.66;5127330;27;19981;-37
2022/10/25 07:36:35;;;;;;;;;;;;;;;21.13;53.46;101186.66;5130227;27;19962;-37
2022/10/25 07:39:00;;;;;;;;;;;;;;;21.13;53.20;101192.19;5126631;27;20033;-37
2022/10/25 07:41:26;;;;;;;;;;;;;;;21.14;53.94;101184.69;5123404;27;19924;-37
2022/10/25 07:43:52;;;;;;;;;;;;;;;21.15;53.73;101195.47;5119032;27;20294;-37
2022/10/25 07:46:17;;;;;;;;;;;;;;;21.15;53.87;101192.72;5129699;27;19923;-38
2022/10/25 07:48:43;;;;;;;;;;;;;;;21.16;54.29;101196.34;5128204;27;19931;-37
2022/10/25 07:51:10;;;;;;;;;;;;;;;21.16;54.08;101194.38;5124704;27;19949;-39
2022/10/25 07:53:36;;;;;;;;;;;;;;;21.16;53.85;101193.56;5127733;27;20022;-38
2022/10/25 07:56:02;;;;;;;;;;;;;;;21.12;54.00;101198.84;5129225;27;19928;-39
2022/10/25 07:58:27;;;;;;;;;;;;;;;21.16;54.01;101196.34;5112240;27;19946;-38
2022/10/25 08:00:58;;;;;;;;;;;;;;;21.19;54.29;101198.50;5125628;27;19931;-37
2022/10/25 08:03:24;;;;;;;;;;;;;;;21.14;54.37;101196.59;5130985;27;19968;-38
2022/10/25 08:05:50;;;;;;;;;;;;;;;21.18;54.29;101194.91;5123718;27;19931;-38
2022/10/25 08:08:15;;;;;;;;;;;;;;;21.21;54.11;101197.13;5120264;27;20660;-38
2022/10/25 08:10:41;;;;;;;;;;;;;;;21.22;54.23;101204.31;5117445;27;19939;-37
2022/10/25 08:13:07;;;;;;;;;;;;;;;21.21;54.28;101199.88;5101047;27;20031;-37
2022/10/25 08:15:34;;;;;;;;;;;;;;;21.21;54.34;101202.66;5120974;27;20040;-37
2022/10/25 08:18:00;;;;;;;;;;;;;;;21.22;54.25;101198.75;5125455;27;19978;-37
2022/10/25 08:20:26;;;;;;;;;;;;;;;21.22;54.18;101198.75;5103124;27;20290;-37
2022/10/25 08:23:11;;;;;;;;;;;;;;;21.23;54.03;101203.19;5094079;27;19931;-37
2022/10/25 08:25:37;;;;;;;;;;;;;;;21.24;54.24;101201.22;5103887;27;19984;-38
2022/10/25 08:28:02;;;;;;;;;;;;;;;21.23;54.23;101200.41;5118546;27;20389;-38
2022/10/25 08:30:28;;;;;;;;;;;;;;;21.24;54.33;101204.84;5117122;27;19931;-38
2022/10/25 08:32:53;;;;;;;;;;;;;;;21.25;54.23;101203.72;5119680;27;19945;-38
2022/10/25 08:35:19;;;;;;;;;;;;;;;21.25;54.36;101202.91;5121600;27;20395;-37
2022/10/25 08:37:45;;;;;;;;;;;;;;;21.26;54.30;101212.88;5117632;27;19931;-37
2022/10/25 08:40:16;;;;;;;;;;;;;;;21.24;54.31;101206.78;5107528;27;19943;-37
2022/10/25 08:42:52;;;;;;;;;;;;;;;21.23;54.13;101208.72;5126215;27;20022;-37
2022/10/25 08:45:23;;;;;;;;;;;;;;;21.24;54.25;101207.63;5118490;27;20017;-38
2022/10/25 08:47:50;;;;;;;;;;;;;;;21.24;54.24;101204.84;5124223;27;20013;-37
2022/10/25 08:50:23;;;;;;;;;;;;;;;21.23;54.02;101210.66;5125695;27;19973;-38
2022/10/25 08:52:52;;;;;;;;;;;;;;;21.24;54.16;101213.16;5120908;27;20022;-37
2022/10/25 08:55:20;;;;;;;;;;;;;;;21.24;54.06;101212.31;5125079;27;20050;-38
2022/10/25 08:57:45;;;;;;;;;;;;;;;21.24;54.09;101206.78;5127791;27;20427;-37
2022/10/25 09:00:16;;;;;;;;;;;;;;;21.25;54.09;101209.28;5126013;27;20371;-37
2022/10/25 09:02:47;;;;;;;;;;;;;;;21.24;54.12;101215.09;5111613;27;19966;-37
2022/10/25 09:05:16;;;;;;;;;;;;;;;21.25;54.04;101214.00;5129449;27;20442;-37
2022/10/25 09:08:01;;;;;;;;;;;;;;;21.23;54.07;101218.97;5127462;27;20034;-38
2022/10/25 09:10:29;;;;;;;;;;;;;;;21.25;54.12;101225.06;5111654;27;20088;-37
2022/10/25 09:13:14;;;;;;;;;;;;;;;21.25;54.25;101238.91;5103319;27;20014;-38
2022/10/25 09:15:43;;;;;;;;;;;;;;;21.26;54.18;101235.84;5125594;27;20274;-39
2022/10/25 09:18:13;;;;;;;;;;;;;;;21.23;53.85;101230.88;5128173;27;19959;-38
2022/10/25 09:20:42;;;;;;;;;;;;;;;21.27;53.63;101234.72;5123567;27;19993;-37
2022/10/25 09:23:10;;;;;;;;;;;;;;;21.27;53.79;101243.03;5125821;27;20011;-37
2022/10/25 09:25:45;;;;;;;;;;;;;;;21.27;53.78;101247.75;5129379;27;21322;-37
2022/10/25 09:28:14;;;;;;;;;;;;;;;21.28;53.95;101254.94;5129508;27;20366;-37
2022/10/25 09:30:40;;;;;;;;;;;;;;;21.29;53.83;101248.31;5125911;27;20342;-37
2022/10/25 09:33:10;;;;;;;;;;;;;;;21.28;53.73;101253.00;5122437;27;20050;-37
2022/10/25 09:35:52;;;;;;;;;;;;;;;21.30;53.68;101247.19;5099663;27;19955;-38
2022/10/25 09:38:38;;;;;;;;;;;;;;;21.24;53.51;101251.94;5099855;27;20025;-39
2022/10/25 09:41:05;;;;;;;;;;;;;;;21.31;53.36;101259.91;5099146;27;20397;-37
2022/10/25 09:43:32;;;;;;;;;;;;;;;21.31;53.45;101262.69;5100808;27;19980;-38
2022/10/25 09:45:59;;;;;;;;;;;;;;;21.31;53.81;101262.69;5125053;27;21173;-38
2022/10/25 09:48:26;;;;;;;;;;;;;;;21.29;53.68;101263.00;5111161;27;20021;-38
2022/10/25 09:50:54;;;;;;;;;;;;;;;21.34;53.67;101258.56;5102967;27;20477;-37
2022/10/25 09:53:20;;;;;;;;;;;;;;;21.35;53.64;101276.84;5129094;27;20672;-38
2022/10/25 09:55:50;;;;;;;;;;;;;;;21.34;53.73;101272.41;5130159;27;20260;-38
2022/10/25 09:58:20;;;;;;;;;;;;;;;21.08;53.72;101271.72;5122412;27;19930;-38
2022/10/25 10:00:46;;;;;;;;;;;;;;;21.02;53.82;101273.66;5123848;27;19957;-40
2022/10/25 10:03:12;;;;;;;;;;;;;;;21.08;53.31;101274.47;5120371;27;19938;-38
2022/10/25 10:05:38;;;;;;;;;;;;;;;21.09;53.75;101273.34;5110721;27;20093;-37
2022/10/25 10:08:04;;;;;;;;;;;;;;;21.20;53.60;101280.47;5131870;27;19934;-37
2022/10/25 10:10:31;;;;;;;;;;;;;;;21.26;53.36;101282.13;5126716;27;19963;-38
2022/10/25 10:12:58;;;;;;;;;;;;;;;21.28;53.25;101286.25;5130320;27;19978;-38
2022/10/25 10:15:30;;;;;;;;;;;;;;;21.31;53.11;101287.63;5116435;27;19935;-37
2022/10/25 10:18:16;;;;;;;;;;;;;;;21.33;53.45;101290.13;5127513;27;20022;-37
2022/10/25 10:20:53;;;;;;;;;;;;;;;21.31;53.53;101284.84;5105882;27;19931;-37
2022/10/25 10:23:18;;;;;;;;;;;;;;;21.32;53.65;101294.84;5125454;27;20014;-37
2022/10/25 10:25:44;;;;;;;;;;;;;;;21.31;53.54;101290.38;5124083;27;19938;-38
2022/10/25 10:28:11;;;;;;;;;;;;;;;21.32;53.61;101289.31;5127504;27;19955;-37
2022/10/25 10:30:37;;;;;;;;;;;;;;;21.33;53.72;101295.66;5109165;27;19985;-37
2022/10/25 10:33:05;;;;;;;;;;;;;;;21.33;53.49;101287.34;5129483;27;20011;-38
2022/10/25 10:35:32;;;;;;;;;;;;;;;21.33;53.73;101287.34;5128600;27;19932;-38
2022/10/25 10:38:17;;;;;;;;;;;;;;;21.35;53.58;101297.06;5121632;27;20438;-38
2022/10/25 10:40:43;;;;;;;;;;;;;;;21.35;53.63;101290.69;5103436;27;20027;-37
2022/10/25 10:43:22;;;;;;;;;;;;;;;21.35;53.55;101296.22;5107743;27;19931;-37
2022/10/25 10:45:47;;;;;;;;;;;;;;;21.34;53.54;101295.41;5096887;27;20010;-38
2022/10/25 10:48:17;;;;;;;;;;;;;;;21.36;53.37;101300.66;5116779;27;19933;-38
2022/10/25 10:50:46;;;;;;;;;;;;;;;21.35;53.63;101308.13;5107756;27;19938;-38
2022/10/25 10:53:20;;;;;;;;;;;;;;;21.36;53.37;101306.19;5121422;27;20018;-38
2022/10/25 10:55:47;;;;;;;;;;;;;;;21.36;53.30;101300.66;5106514;27;20350;-38
2022/10/25 10:58:15;;;;;;;;;;;;;;;21.36;53.15;101300.66;5132827;27;20397;-38
2022/10/25 11:00:49;;;;;;;;;;;;;;;21.43;53.04;101293.69;5131197;27;19927;-39
2022/10/25 11:03:34;;;;;;;;;;;;;;;21.41;52.69;101295.88;5110574;27;20706;-38
2022/10/25 11:06:00;;;;;;;;;;;;;;;21.01;53.20;101291.38;5113413;27;19931;-39
2022/10/25 11:08:25;;;;;;;;;;;;;;;20.71;54.42;101297.88;5129333;27;19942;-39
2022/10/25 11:10:51;;;;;;;;;;;;;;;20.90;53.92;101295.34;5124690;27;19960;-37
2022/10/25 11:13:17;;;;;;;;;;;;;;;21.12;53.57;101297.72;5131707;27;19923;-39
2022/10/25 11:15:48;;;;;;;;;;;;;;;21.22;53.28;101301.25;5123711;27;20386;-39
2022/10/25 11:18:14;;;;;;;;;;;;;;;21.26;53.28;101291.25;5128890;27;19973;-38
2022/10/25 11:20:48;;;;;;;;;;;;;;;21.29;53.30;101299.00;5133643;27;20399;-38
2022/10/25 11:23:16;;;;;;;;;;;;;;;21.32;53.43;101294.84;5130710;27;20010;-38
2022/10/25 11:26:01;;;;;;;;;;;;;;;21.33;53.35;101299.28;5131483;27;20013;-38
2022/10/25 11:31:28;;;;;;;;;;;;;;;21.12;53.26;101294.94;5149971;27;20561;-35
2022/10/25 11:34:14;;;;;;;;;;;;;;;21.04;53.64;101299.97;5133841;27;19955;-35
2022/10/25 11:36:59;;;;;;;;;;;;;;;21.24;53.36;101292.63;5131415;27;20026;-35
2022/10/25 11:39:29;;;;;;;;;;;;;;;21.30;53.32;101292.34;5133857;27;19973;-35
2022/10/25 11:41:58;;;;;;;;;;;;;;;21.33;53.34;101296.53;5148682;27;20014;-36
2022/10/25 11:44:30;;;;;;;;;;;;;;;21.35;53.26;101297.06;5147628;27;20026;-35
2022/10/25 11:47:02;;;;;;;;;;;;;;;21.36;53.23;101298.69;5154736;27;20835;-35
2022/10/25 11:49:48;;;;;;;;;;;;;;;21.37;53.24;101302.28;5144420;27;19930;-37
2022/10/25 11:52:37;;;;;;;;;;;;;;;21.37;52.81;101300.34;5131755;27;19938;-38
2022/10/25 11:55:07;;;;;;;;;;;;;;;21.21;51.53;101301.53;5131478;27;19967;-40
2022/10/25 11:57:35;;;;;;;;;;;;;;;21.30;51.95;101297.88;5147569;27;19970;-38
2022/10/25 12:00:07;;;;;;;;;;;;;;;21.36;52.15;101295.94;5153573;27;19958;-37
2022/10/25 12:02:37;;;;;;;;;;;;;;;21.38;51.94;101292.88;5145179;27;20446;-38
2022/10/25 12:05:23;;;;;;;;;;;;;;;21.38;52.09;101292.88;5147654;27;20298;-38
2022/10/25 12:07:56;;;;;;;;;;;;;;;21.41;51.90;101289.53;5137855;27;20038;-37
2022/10/25 12:10:27;;;;;;;;;;;;;;;21.41;52.07;101292.28;5151720;27;20049;-38
2022/10/25 12:12:54;;;;;;;;;;;;;;;21.40;52.19;101291.47;5131546;27;19974;-38
2022/10/25 12:15:22;;;;;;;;;;;;;;;21.42;52.39;101299.50;5120679;27;20018;-37
2022/10/25 12:17:47;;;;;;;;;;;;;;;21.41;52.17;101298.66;5138375;27;20031;-38
2022/10/25 12:20:28;;;;;;;;;;;;;;;21.42;52.19;101300.34;5139624;27;19927;-38
2022/10/25 12:22:55;;;;;;;;;;;;;;;21.42;51.93;101305.06;5137404;27;20338;-38
2022/10/25 12:25:23;;;;;;;;;;;;;;;21.42;52.04;101313.38;5111030;27;20376;-37
2022/10/25 12:27:49;;;;;;;;;;;;;;;21.42;52.00;101299.50;5137839;27;19931;-38
2022/10/25 12:30:21;;;;;;;;;;;;;;;21.40;52.43;101297.00;5141748;27;20344;-38
2022/10/25 12:32:51;;;;;;;;;;;;;;;21.41;51.93;101298.66;5139633;27;19938;-38
2022/10/25 12:35:19;;;;;;;;;;;;;;;21.42;51.99;101296.75;5135978;27;20031;-38
2022/10/25 12:37:48;;;;;;;;;;;;;;;21.41;52.30;101293.13;5139995;27;19938;-38
2022/10/25 12:40:17;;;;;;;;;;;;;;;21.41;52.55;101298.66;5118778;27;20421;-39
2022/10/25 12:42:45;;;;;;;;;;;;;;;21.39;51.55;101291.78;5106299;27;19938;-38
2022/10/25 12:45:20;;;;;;;;;;;;;;;21.43;52.54;101290.09;5103249;28;19961;-39
2022/10/25 12:50:41;;;;;;;;;;;;;;;21.43;52.38;101282.59;5165287;27;19925;-35